< < Back
Terminal Aerodrome Forecast


Current Version              Previous Versions:   1  2  3  4  5  6  7  8  9  

Terminal Aerodrome Forecast

348
FTUS42 KMLB 180200 AAA
TAFMCO
TAF AMD
KMCO 180253Z 1803/1824 06011KT P6SM SCT020 BKN040 OVC250
      TEMPO 1809/1813 5SM -RA BR OVC015
     FM181400 12013G20KT P6SM VCSH SCT015 BKN035 OVC060=

Latest METAR

165
SAUS70 KWBC 180300 RRG
MTRMCO
METAR KMCO 180253Z 05009KT 10SM SCT024 SCT037 BKN048 BKN180 22/18 A3018
RMK AO2 SLP218 T02170183 51004


USA.gov is the U.S. government's official web portal to all federal, state and local government web resources and services.